Grouse Creek, UT (84313)

4:23 AM MDT on July 31, 2014 (GMT -0600)
RAWS ROSEBUD UT US (MRSBU1) Elev 4986 ft | 41.61 °N, 113.59 °W | Change Station

Current weather conditions updated 41 minutes ago

Clear
Clear
59 °F
Feels Like 59 °F
N
6
Wind Variable Wind from WNW
Gusts 7.0 mph

Today is forecast to be Warmer than yesterday.

Today
High -- | Low -- °F
--% Chance of Precip.
Yesterday
High -- | Low -- °F
Precip. -- in
6:29 AM 8:53 PM
Waxing Crescent, 17% visible
Pressure 29.04 in
Visibility -9999.0 miles
Clouds Clear
Dew Point 53 °F
Humidity 80%
Rainfall 0.00 in
Snow Depth Not available.
UV 0 out of 12
Pollen 5.70 out of 12
Ozone Good
PM2.5 Good
Flu Activity Not available.
METAR KU16 310858Z AUTO 00000KT CLR 17/13 A3017 RMK AO2 SLP833 T01720128 58005 $

More Conditions Fewer Conditions

Pressure 29.04 in
Visibility -9999.0 miles
Clouds Clear
Dew Point 53 °F
Humidity 80%
Rainfall 0.00 in
Snow Depth Not available.
UV 0 out of 12
Pollen 5.70 out of 12
Ozone Good
PM2.5 Good
Flu Activity Not available.
METAR KU16 310858Z AUTO 00000KT CLR 17/13 A3017 RMK AO2 SLP833 T01720128 58005 $

More Conditions Fewer Conditions

10-Day Weather Forecast

Almanac

Astronomy

Jul. 31, 2014 Rise Set
Actual Time 6:29 AM MDT 8:53 PM MDT
Civil Twilight 5:57 AM MDT 9:24 PM MDT
Nautical Twilight 5:18 AM MDT 10:03 PM MDT
Astronomical Twilight 4:35 AM MDT 10:45 PM MDT
Moon 11:03 AM MDT 11:04 PM MDT
Length of Visible Light 15h 26m
Length of Day
14h 24m
Tomorrow will be 2m 6s shorter.
Waxing Crescent, 17% of the Moon is Illuminated
Today
Waxing Crescent
Aug 3
First Quarter
Aug 10
Full
Aug 17
Last Quarter
Aug 25
New

Today's Extremes

State Highs State Lows

Community

WunderPhotos

Upload Photos

1,739,284 photos uploaded!

Nearby

Air Quality

  Air Quality AQ Index Pollutant
Yesterday Good
OZONE
Yesterday Good
PM2.5
Current Good
OZONE
Current Good
PM2.5

Snow Depth

Station Depth Elevation
Ben Lomond Peak 0 in 8000 ft
Ben Lomond Trail 2 in 6000 ft
Little Bear 0 in 6550 ft
Dry Fork 0 in 7160 ft
Rocky Basin-Settlement 0 in 8900 ft

Earthquake Activity

City Distance Mag. Time & Date
No recent earthquake activity has been reported nearby.
Minimum magnitude displayed is 2.5.

Coastal Water Temperatures

Place Temperature
No Stations Reporting

Nearby Weather Stations

Station Location Temp. Dew Point Humidity Wind Precip. Elev Updated Type
RAWS ROSEBUD UT, Grouse Creek, UT 59 °F 53 °F 80% WNW  at  6 mph 0.00 in / hr 4986 ft 3:42 AM MDT MADIS
MesoWest MNTLE1 , Montello, NV 59 °F - - North  at  - 0.00 in / hr 4833 ft 2:00 AM PDT MADIS
MesoWest GROUSE CREEK , Grouse Creek, UT 56 °F 51 °F 85% NNE  at  3 mph 0.00 in / hr 5845 ft 3:00 AM MDT MADIS

Show More Stations Show Fewer Stations